West Falls, NY

6:16 PM EDT on September 30, 2016 (GMT -0400)
Town of Tonawanda Kenilworth | | Change Station

Elev 617 ft 42.97 °N, 78.84 °W | Updated 21 seconds ago

Mostly Cloudy
Mostly Cloudy
63.7 °F
Feels Like 63.7 °F
N
1.0
Wind Variable Wind from NE
Gusts 2.0 mph

Today
High -- | Low -- °F
--% Chance of Precip.
Yesterday
High -- | Low -- °F
Precip. -- in
Pressure 30.22 in
Visibility 10.0 miles
Clouds Mostly Cloudy 4500 ft
Mostly Cloudy 5000 ft
Dew Point 51.7 °F
Humidity 65%
Rainfall 0.00 in
Snow Depth Not available.
7:11 AM 6:56 PM
Waning Crescent, 0% visible
METAR KBUF 302154Z 08011G19KT 10SM BKN045 BKN050 17/09 A3022 RMK AO2 SLP234 T01720094
Pressure 30.22 in
Visibility 10.0 miles
Clouds Mostly Cloudy 4500 ft
Mostly Cloudy 5000 ft
Dew Point 51.7 °F
Humidity 65%
Rainfall 0.00 in
Snow Depth Not available.
7:11 AM 6:56 PM
Waning Crescent, 0% visible
METAR KBUF 302154Z 08011G19KT 10SM BKN045 BKN050 17/09 A3022 RMK AO2 SLP234 T01720094

10-Day Weather Forecast

Almanac

Astronomy

Sep. 30, 2016 Rise Set
Actual Time
Civil Twilight
Nautical Twilight
Astronomical Twilight
Moon
Length of Visible Light
Length of Day
Tomorrow will be .
, % of the Moon is Illuminated

Today's Extremes

State Highs State Lows

Community

WunderPhotos

Upload Photos

1,942,796 photos uploaded!

WunderBlog® & News

Nearby

Air Quality

  Air Quality AQ Index Pollutant
Not available.

Snow Depth

Station Depth Elevation

Earthquake Activity

City Distance Mag. Time & Date
Minimum magnitude displayed is 2.5.

Coastal Water Temperatures

Place Temperature

Stations

Nearby Weather Stations

Station Location Temp. Windchill Dew Point Humidity Wind Precip. Elev Updated Type
                   

Watches & Warnings

There are currently no watches in effect.